createdAt,value
2023-04-12T00:00:48.429Z,4.83
2023-04-12T00:03:21.042Z,8.77
2023-04-12T00:05:48.920Z,6.77
2023-04-12T00:08:16.575Z,7.20
2023-04-12T00:10:43.204Z,5.70
2023-04-12T00:13:09.792Z,11.47
2023-04-12T00:15:36.297Z,7.93
2023-04-12T00:18:02.834Z,6.87
2023-04-12T00:20:29.203Z,3.90
2023-04-12T00:22:57.447Z,5.57
2023-04-12T00:25:23.978Z,3.47
2023-04-12T00:27:50.724Z,7.80
2023-04-12T00:30:17.505Z,7.80
2023-04-12T00:32:44.028Z,6.33
2023-04-12T00:35:10.509Z,7.73
2023-04-12T00:37:38.285Z,4.23
2023-04-12T00:40:07.193Z,3.33
2023-04-12T00:42:34.952Z,4.03
2023-04-12T00:45:01.318Z,5.93
2023-04-12T00:47:29.673Z,10.10
2023-04-12T00:49:56.642Z,9.43
2023-04-12T00:52:23.512Z,3.77
2023-04-12T00:54:51.772Z,6.77
2023-04-12T00:57:18.179Z,6.40
2023-04-12T00:59:44.485Z,4.07
2023-04-12T01:02:10.941Z,8.77
2023-04-12T01:04:39.504Z,7.17
2023-04-12T01:07:32.076Z,8.20
2023-04-12T01:10:31.310Z,5.83
2023-04-12T01:13:22.195Z,5.83
2023-04-12T01:16:01.159Z,8.17
2023-04-12T01:18:33.301Z,5.43
2023-04-12T01:21:08.689Z,5.20
2023-04-12T01:23:52.056Z,5.17
2023-04-12T01:26:33.363Z,5.07
2023-04-12T01:29:02.399Z,5.00
2023-04-12T01:31:31.188Z,9.27
2023-04-12T01:33:59.926Z,4.10
2023-04-12T01:36:28.207Z,6.97
2023-04-12T01:38:54.935Z,7.27
2023-04-12T01:41:21.340Z,6.83
2023-04-12T01:43:48.117Z,4.13
2023-04-12T01:46:22.052Z,4.67
2023-04-12T01:48:53.517Z,4.73
2023-04-12T01:51:44.587Z,7.13
2023-04-12T01:54:19.597Z,6.77
2023-04-12T01:56:50.167Z,8.03
2023-04-12T01:59:18.276Z,6.07
2023-04-12T02:01:47.134Z,6.90
2023-04-12T02:04:15.978Z,5.63
2023-04-12T02:06:43.547Z,5.67
2023-04-12T02:09:10.322Z,7.37
2023-04-12T02:11:37.808Z,4.57
2023-04-12T02:14:04.217Z,5.17
2023-04-12T02:16:32.299Z,3.07
2023-04-12T02:18:58.870Z,7.67
2023-04-12T02:21:27.528Z,6.80
2023-04-12T02:23:53.944Z,7.53
2023-04-12T02:26:20.866Z,6.87
2023-04-12T02:28:47.224Z,5.03
2023-04-12T02:31:15.614Z,5.90
2023-04-12T02:33:42.552Z,9.13
2023-04-12T02:36:11.145Z,5.17
2023-04-12T02:38:37.859Z,5.93
2023-04-12T02:41:04.321Z,2.77
2023-04-12T02:43:30.812Z,4.07
2023-04-12T02:45:57.241Z,4.23
2023-04-12T02:48:23.669Z,5.83
2023-04-12T02:50:50.316Z,4.40
2023-04-12T02:53:17.025Z,4.87
2023-04-12T02:55:43.454Z,4.33
2023-04-12T02:58:09.780Z,4.07
2023-04-12T03:00:36.117Z,6.40
2023-04-12T03:03:03.676Z,4.37
2023-04-12T03:05:30.306Z,7.33
2023-04-12T03:07:56.803Z,2.50
2023-04-12T03:10:23.323Z,3.73
2023-04-12T03:12:49.849Z,5.80
2023-04-12T03:15:17.785Z,5.87
2023-04-12T03:17:44.827Z,8.63
2023-04-12T03:20:11.891Z,6.63
2023-04-12T03:22:38.334Z,5.13
2023-04-12T03:25:05.446Z,3.60
2023-04-12T03:27:32.192Z,4.93
2023-04-12T03:29:58.636Z,4.30
2023-04-12T03:32:25.619Z,8.87
2023-04-12T03:34:52.068Z,7.33
2023-04-12T03:37:19.507Z,4.50
2023-04-12T03:39:48.017Z,3.80
2023-04-12T03:42:25.795Z,5.60
2023-04-12T03:44:58.447Z,4.00
2023-04-12T03:47:24.992Z,7.03
2023-04-12T03:50:06.084Z,3.27
2023-04-12T03:52:36.702Z,4.40
2023-04-12T03:55:03.556Z,6.33
2023-04-12T03:57:29.919Z,3.80
2023-04-12T03:59:56.430Z,5.17
2023-04-12T04:02:23.138Z,4.23
2023-04-12T04:04:49.609Z,4.90
2023-04-12T04:07:16.192Z,3.10
2023-04-12T04:09:42.639Z,5.93
2023-04-12T04:12:08.997Z,4.77
2023-04-12T04:14:36.949Z,4.77
2023-04-12T04:17:03.461Z,5.20
2023-04-12T04:19:29.864Z,4.50
2023-04-12T04:21:57.188Z,5.27
2023-04-12T04:24:25.069Z,2.23
2023-04-12T04:26:54.224Z,3.70
2023-04-12T04:29:20.873Z,4.47
2023-04-12T04:31:47.519Z,3.93
2023-04-12T04:34:14.049Z,5.13
2023-04-12T04:36:42.209Z,2.50
2023-04-12T04:39:09.802Z,5.73
2023-04-12T04:41:39.195Z,6.30
2023-04-12T04:44:09.563Z,4.70
2023-04-12T04:46:37.813Z,2.63
2023-04-12T04:49:05.217Z,2.80
2023-04-12T04:51:31.943Z,1.60
2023-04-12T04:53:58.673Z,4.43
2023-04-12T04:56:25.232Z,2.67
2023-04-12T04:58:51.636Z,3.17
2023-04-12T05:01:18.034Z,5.13
2023-04-12T05:03:50.171Z,5.13
2023-04-12T05:06:17.168Z,3.50
2023-04-12T05:08:44.856Z,3.13
2023-04-12T05:11:11.303Z,4.20
2023-04-12T05:13:37.667Z,3.47
2023-04-12T05:16:08.174Z,5.20
2023-04-12T05:18:34.695Z,4.37
2023-04-12T05:21:05.351Z,3.67
2023-04-12T05:23:42.971Z,2.27
2023-04-12T05:26:09.336Z,3.43
2023-04-12T05:28:36.150Z,4.70
2023-04-12T05:31:09.521Z,4.80
2023-04-12T05:33:37.393Z,4.40
2023-04-12T05:36:04.627Z,6.67
2023-04-12T05:38:31.302Z,3.70
2023-04-12T05:40:57.784Z,4.40
2023-04-12T05:43:24.138Z,3.90
2023-04-12T05:45:51.440Z,3.60
2023-04-12T05:48:18.895Z,2.67
2023-04-12T05:50:52.821Z,1.70
2023-04-12T05:53:19.269Z,3.77
2023-04-12T05:55:46.072Z,4.67
2023-04-12T05:58:12.516Z,3.07
2023-04-12T06:00:42.273Z,2.03
2023-04-12T06:03:10.442Z,3.33
2023-04-12T06:05:37.995Z,2.73
2023-04-12T06:08:05.442Z,2.27
2023-04-12T06:10:32.083Z,2.17
2023-04-12T06:12:58.466Z,5.53
2023-04-12T06:15:24.810Z,1.80
2023-04-12T06:17:51.382Z,3.07
2023-04-12T06:20:17.997Z,4.27
2023-04-12T06:22:44.453Z,2.60
2023-04-12T06:25:10.812Z,2.57
2023-04-12T06:27:37.266Z,2.57
2023-04-12T06:30:04.245Z,1.70
2023-04-12T06:32:30.890Z,4.10
2023-04-12T06:34:57.469Z,3.53
2023-04-12T06:37:23.975Z,1.63
2023-04-12T06:39:50.497Z,2.73
2023-04-12T06:42:17.593Z,2.73
2023-04-12T06:44:44.112Z,5.50
2023-04-12T06:47:11.254Z,4.30
2023-04-12T06:49:39.024Z,3.30
2023-04-12T06:52:05.468Z,3.57
2023-04-12T06:54:32.012Z,2.53
2023-04-12T06:56:58.514Z,4.83
2023-04-12T06:59:24.899Z,2.50
2023-04-12T07:01:51.785Z,3.23
2023-04-12T07:04:18.254Z,1.63
2023-04-12T07:06:44.731Z,3.47
2023-04-12T07:09:11.364Z,1.77
2023-04-12T07:11:37.804Z,3.60
2023-04-12T07:14:04.312Z,2.50
2023-04-12T07:16:34.077Z,2.83
2023-04-12T07:19:00.817Z,2.37
2023-04-12T07:21:27.644Z,1.80
2023-04-12T07:23:54.191Z,2.00
2023-04-12T07:26:21.638Z,4.90
2023-04-12T07:28:48.111Z,4.03
2023-04-12T07:31:14.605Z,13.13
2023-04-12T07:33:42.943Z,2.93
2023-04-12T07:36:11.132Z,3.07
2023-04-12T07:38:37.631Z,1.60
2023-04-12T07:41:04.190Z,2.70
2023-04-12T07:43:30.600Z,1.20
2023-04-12T07:45:57.190Z,1.77
2023-04-12T07:48:23.680Z,2.10
2023-04-12T07:50:50.601Z,1.60
2023-04-12T07:53:19.718Z,3.10
2023-04-12T07:55:47.365Z,2.50
2023-04-12T07:58:14.155Z,1.40
2023-04-12T08:00:40.928Z,1.67
2023-04-12T08:03:07.541Z,1.63
2023-04-12T08:05:34.631Z,1.40
2023-04-12T08:08:01.181Z,1.90
2023-04-12T08:10:27.576Z,2.17
2023-04-12T08:12:53.968Z,1.50
2023-04-12T08:15:21.028Z,4.10
2023-04-12T08:17:48.129Z,2.43
2023-04-12T08:20:17.905Z,1.60
2023-04-12T08:22:46.147Z,2.00
2023-04-12T08:25:12.913Z,2.10
2023-04-12T08:27:43.207Z,2.47
2023-04-12T08:30:11.613Z,1.50
2023-04-12T08:32:38.189Z,1.80
2023-04-12T08:35:05.629Z,1.20
2023-04-12T08:37:32.453Z,1.30
2023-04-12T08:40:00.893Z,1.57
2023-04-12T08:42:27.600Z,1.10
2023-04-12T08:44:54.496Z,1.37
2023-04-12T08:47:21.141Z,1.17
2023-04-12T08:49:47.615Z,0.90
2023-04-12T08:52:14.050Z,1.63
2023-04-12T08:54:40.573Z,1.13
2023-04-12T08:57:08.838Z,0.90
2023-04-12T08:59:39.043Z,2.20
2023-04-12T09:02:05.800Z,0.97
2023-04-12T09:04:32.421Z,0.80
2023-04-12T09:06:59.046Z,1.00
2023-04-12T09:09:47.736Z,1.20
2023-04-12T09:12:15.714Z,1.33
2023-04-12T09:14:45.670Z,0.90
2023-04-12T09:17:23.137Z,2.03
2023-04-12T09:19:49.824Z,1.00
2023-04-12T09:22:16.302Z,1.00
2023-04-12T09:24:50.679Z,1.70
2023-04-12T09:27:20.870Z,1.60
2023-04-12T09:29:51.569Z,1.23
2023-04-12T09:32:27.573Z,1.40
2023-04-12T09:34:59.048Z,2.03
2023-04-12T09:37:26.154Z,2.47
2023-04-12T09:40:06.114Z,1.27
2023-04-12T09:42:53.323Z,0.80
2023-04-12T09:45:25.575Z,1.97
2023-04-12T09:47:53.285Z,1.50
2023-04-12T09:50:32.798Z,1.70
2023-04-12T09:53:01.445Z,1.40
2023-04-12T09:55:29.800Z,1.17
2023-04-12T09:57:56.482Z,1.23
2023-04-12T10:00:26.642Z,0.80
2023-04-12T10:02:55.565Z,3.57
2023-04-12T10:05:26.699Z,2.67
2023-04-12T10:07:55.342Z,2.03
2023-04-12T10:10:23.272Z,1.27
2023-04-12T10:12:50.605Z,4.63
2023-04-12T10:15:18.288Z,2.23
2023-04-12T10:17:51.649Z,1.00
2023-04-12T10:20:20.028Z,1.53
2023-04-12T10:22:48.590Z,1.03
2023-04-12T10:25:18.765Z,1.40
2023-04-12T10:27:46.612Z,1.53
2023-04-12T10:30:20.480Z,1.87
2023-04-12T10:35:14.795Z,1.07
2023-04-12T10:38:01.504Z,1.87
2023-04-12T10:40:29.623Z,1.90
2023-04-12T10:43:22.557Z,0.97
2023-04-12T10:45:49.885Z,1.57
2023-04-12T10:48:33.167Z,1.83
2023-04-12T10:51:26.642Z,2.07
2023-04-12T10:54:14.447Z,1.50
2023-04-12T10:56:42.889Z,1.20
2023-04-12T10:59:10.826Z,1.43
2023-04-12T11:01:39.168Z,1.63
2023-04-12T11:04:16.974Z,1.50
2023-04-12T11:06:53.074Z,3.07
2023-04-12T11:09:27.598Z,2.23
2023-04-12T11:12:11.211Z,1.27
2023-04-12T11:14:51.285Z,2.30
2023-04-12T11:17:17.921Z,1.90
2023-04-12T11:19:54.142Z,1.43
2023-04-12T11:22:23.466Z,3.17
2023-04-12T11:24:52.349Z,1.27
2023-04-12T11:27:20.723Z,1.37
2023-04-12T11:29:56.059Z,1.50
2023-04-12T11:32:28.414Z,1.23
2023-04-12T11:34:56.846Z,5.17
2023-04-12T11:37:24.272Z,3.03
2023-04-12T11:39:53.264Z,2.20
2023-04-12T11:42:22.687Z,1.90
2023-04-12T11:44:56.384Z,4.00
2023-04-12T11:47:26.705Z,1.87
2023-04-12T11:50:00.878Z,2.30
2023-04-12T11:52:32.573Z,4.83
2023-04-12T11:55:01.424Z,2.97
2023-04-12T11:57:28.931Z,3.67
2023-04-12T11:59:57.342Z,2.77
2023-04-12T12:02:25.158Z,3.60
2023-04-12T12:04:53.344Z,2.43
2023-04-12T12:07:21.828Z,3.93
2023-04-12T12:09:50.088Z,6.33
2023-04-12T12:12:16.628Z,3.13
2023-04-12T12:14:45.155Z,5.47
2023-04-12T12:17:13.504Z,4.90
2023-04-12T12:19:43.211Z,5.17
2023-04-12T12:22:20.652Z,6.57
2023-04-12T12:24:51.284Z,4.07
2023-04-12T12:27:38.607Z,3.00
2023-04-12T12:30:07.752Z,6.20
2023-04-12T12:32:35.762Z,3.37
2023-04-12T12:35:03.327Z,2.57
2023-04-12T12:37:30.550Z,2.03
2023-04-12T12:40:10.443Z,3.03
2023-04-12T12:42:37.167Z,3.30
2023-04-12T12:45:04.496Z,3.13
2023-04-12T12:47:32.418Z,2.53
2023-04-12T12:49:58.984Z,4.90
2023-04-12T12:52:25.370Z,2.97
2023-04-12T12:54:51.821Z,2.23
2023-04-12T12:57:18.272Z,3.53
2023-04-12T12:59:44.652Z,3.03
2023-04-12T13:02:11.233Z,3.40
2023-04-12T13:04:37.773Z,3.90
2023-04-12T13:07:04.413Z,3.77
2023-04-12T13:09:31.649Z,3.77
2023-04-12T13:11:58.200Z,4.30
2023-04-12T13:14:24.656Z,2.03
2023-04-12T13:16:51.271Z,3.70
2023-04-12T13:19:17.864Z,4.10
2023-04-12T13:21:44.318Z,4.13
2023-04-12T13:24:11.253Z,5.13
2023-04-12T13:26:37.641Z,4.77
2023-04-12T13:29:03.985Z,2.67
2023-04-12T13:31:30.544Z,3.63
2023-04-12T13:33:57.022Z,2.67
2023-04-12T13:36:23.538Z,4.13
2023-04-12T13:38:51.370Z,7.13
2023-04-12T13:41:19.141Z,5.00
2023-04-12T13:43:45.523Z,9.47
2023-04-12T13:46:13.292Z,3.87
2023-04-12T13:48:39.816Z,5.90
2023-04-12T13:51:06.489Z,8.87
2023-04-12T13:53:33.001Z,4.87
2023-04-12T13:55:59.468Z,5.10
2023-04-12T13:58:25.930Z,5.27
2023-04-12T14:00:54.285Z,6.70
2023-04-12T14:03:21.189Z,4.43
2023-04-12T14:05:47.852Z,8.07
2023-04-12T14:08:14.215Z,5.80
2023-04-12T14:10:40.971Z,4.37
2023-04-12T14:13:07.336Z,7.77
2023-04-12T14:15:33.729Z,4.20
2023-04-12T14:18:00.619Z,6.93
2023-04-12T14:20:27.138Z,4.57
2023-04-12T14:22:53.516Z,4.43
2023-04-12T14:25:20.078Z,7.87
2023-04-12T14:27:46.519Z,7.20
2023-04-12T14:30:13.102Z,6.53
2023-04-12T14:32:39.572Z,7.07
2023-04-12T14:35:06.147Z,4.27
2023-04-12T14:37:33.150Z,8.10
2023-04-12T14:39:59.679Z,6.30
2023-04-12T14:42:26.092Z,8.40
2023-04-12T14:44:52.464Z,8.83
2023-04-12T14:47:18.955Z,6.00
2023-04-12T14:49:45.391Z,5.67
2023-04-12T14:52:11.877Z,5.40
2023-04-12T14:54:38.755Z,8.27
2023-04-12T14:57:05.119Z,8.03
2023-04-12T14:59:32.135Z,7.60
2023-04-12T15:01:59.555Z,5.20
2023-04-12T15:04:26.269Z,10.00
2023-04-12T15:06:52.777Z,5.47
2023-04-12T15:09:19.168Z,5.20
2023-04-12T15:11:50.460Z,4.77
2023-04-12T15:14:20.487Z,5.07
2023-04-12T15:16:49.055Z,7.10
2023-04-12T15:19:21.116Z,5.67
2023-04-12T15:21:51.142Z,6.87
2023-04-12T15:24:18.723Z,7.30
2023-04-12T15:26:48.062Z,6.33
2023-04-12T15:29:16.517Z,4.60
2023-04-12T15:31:43.531Z,4.77
2023-04-12T15:34:10.661Z,4.90
2023-04-12T15:36:37.349Z,5.30
2023-04-12T15:39:07.328Z,5.80
2023-04-12T15:41:38.057Z,7.83
2023-04-12T15:44:05.234Z,3.03
2023-04-12T15:46:31.610Z,4.10
2023-04-12T15:48:58.833Z,4.53
2023-04-12T15:51:26.710Z,5.30
2023-04-12T15:53:53.751Z,6.23
2023-04-12T15:56:24.258Z,5.87
2023-04-12T15:58:56.803Z,4.10
2023-04-12T16:01:24.535Z,5.33
2023-04-12T16:03:51.800Z,5.90
2023-04-12T16:06:19.781Z,4.53
2023-04-12T16:08:51.401Z,3.67
2023-04-12T16:11:21.262Z,3.13
2023-04-12T16:13:48.988Z,5.27
2023-04-12T16:16:17.774Z,6.23
2023-04-12T16:18:45.549Z,2.83
2023-04-12T16:21:16.244Z,3.47
2023-04-12T16:23:44.425Z,2.73
2023-04-12T16:26:12.103Z,3.50
2023-04-12T16:28:39.366Z,3.10
2023-04-12T16:31:06.502Z,5.87
2023-04-12T16:33:32.945Z,3.10
2023-04-12T16:36:00.680Z,1.77
2023-04-12T16:38:27.333Z,4.53
2023-04-12T16:40:53.784Z,2.30
2023-04-12T16:43:20.195Z,3.20
2023-04-12T16:45:48.528Z,1.60
2023-04-12T16:48:15.563Z,1.60
2023-04-12T16:50:47.157Z,2.13
2023-04-12T16:53:15.032Z,1.70
2023-04-12T16:55:47.118Z,1.43
2023-04-12T16:58:14.358Z,1.10
2023-04-12T17:00:43.157Z,1.17
2023-04-12T17:03:11.433Z,1.30
2023-04-12T17:05:38.850Z,2.67
2023-04-12T17:08:05.906Z,2.00
2023-04-12T17:10:33.260Z,4.13
2023-04-12T17:12:59.783Z,2.07
2023-04-12T17:15:27.042Z,1.53
2023-04-12T17:18:01.137Z,1.90
2023-04-12T17:20:28.428Z,1.10
2023-04-12T17:22:55.415Z,4.30
2023-04-12T17:28:08.808Z,1.30
2023-04-12T17:30:35.209Z,1.23
2023-04-12T17:33:01.819Z,1.43
2023-04-12T17:35:28.789Z,2.27
2023-04-12T17:37:55.395Z,4.70
2023-04-12T17:40:21.948Z,3.17
2023-04-12T17:42:48.512Z,2.00
2023-04-12T17:45:15.976Z,3.13
2023-04-12T17:47:42.849Z,2.03
2023-04-12T17:50:11.084Z,2.33
2023-04-12T17:52:37.930Z,2.33
2023-04-12T17:55:05.806Z,2.03
2023-04-12T17:57:32.581Z,2.13
2023-04-12T17:59:58.936Z,2.30
2023-04-12T18:02:26.141Z,0.90
2023-04-12T18:04:52.600Z,1.80
2023-04-12T18:07:19.217Z,0.80
2023-04-12T18:09:45.903Z,1.13
2023-04-12T18:12:13.038Z,2.40
2023-04-12T18:14:40.897Z,2.90
2023-04-12T18:17:08.180Z,3.20
2023-04-12T18:19:34.732Z,3.47
2023-04-12T18:22:01.136Z,2.23
2023-04-12T18:24:27.777Z,4.33
2023-04-12T18:26:54.241Z,3.03
2023-04-12T18:29:20.946Z,2.10
2023-04-12T18:31:47.566Z,9.17
2023-04-12T18:34:14.096Z,3.30
2023-04-12T18:36:42.275Z,2.57
2023-04-12T18:39:08.906Z,3.50
2023-04-12T18:41:35.798Z,1.47
2023-04-12T18:44:02.731Z,4.03
2023-04-12T18:46:29.658Z,2.70
2023-04-12T18:48:56.866Z,2.47
2023-04-12T18:51:23.306Z,2.10
2023-04-12T18:53:51.233Z,2.40
2023-04-12T18:56:23.040Z,1.50
2023-04-12T18:58:55.724Z,3.60
2023-04-12T19:01:24.758Z,1.90
2023-04-12T19:03:52.177Z,3.83
2023-04-12T19:06:19.152Z,2.70
2023-04-12T19:08:45.596Z,2.37
2023-04-12T19:11:12.290Z,3.07
2023-04-12T19:13:38.748Z,3.63
2023-04-12T19:16:08.591Z,2.70
2023-04-12T19:18:35.353Z,1.70
2023-04-12T19:21:02.622Z,2.23
2023-04-12T19:23:29.660Z,1.73
2023-04-12T19:25:58.740Z,4.13
2023-04-12T19:28:26.326Z,4.20
2023-04-12T19:30:53.339Z,2.87
2023-04-12T19:33:20.541Z,2.20
2023-04-12T19:35:47.428Z,2.90
2023-04-12T19:38:15.372Z,4.20
2023-04-12T19:40:42.053Z,1.70
2023-04-12T19:43:08.818Z,4.10
2023-04-12T19:45:35.573Z,4.97
2023-04-12T19:48:02.260Z,4.60
2023-04-12T19:50:30.844Z,1.57
2023-04-12T19:52:57.307Z,2.53
2023-04-12T19:55:23.842Z,3.43
2023-04-12T19:57:51.165Z,2.13
2023-04-12T20:00:20.938Z,3.43
2023-04-12T20:02:52.058Z,2.83
2023-04-12T20:05:20.634Z,4.33
2023-04-12T20:07:47.162Z,5.83
2023-04-12T20:10:15.239Z,3.30
2023-04-12T20:12:41.881Z,3.23
2023-04-12T20:15:09.110Z,1.50
2023-04-12T20:17:36.082Z,2.33
2023-04-12T20:20:04.586Z,4.43
2023-04-12T20:22:31.028Z,2.07
2023-04-12T20:24:58.358Z,2.80
2023-04-12T20:27:24.922Z,2.13
2023-04-12T20:29:51.794Z,2.30
2023-04-12T20:32:18.281Z,2.50
2023-04-12T20:34:48.987Z,2.07
2023-04-12T20:37:16.812Z,2.53
2023-04-12T20:39:44.032Z,1.83
2023-04-12T20:42:10.716Z,2.80
2023-04-12T20:44:37.504Z,2.53
2023-04-12T20:47:04.032Z,1.87
2023-04-12T20:49:31.244Z,2.27
2023-04-12T20:51:58.982Z,3.33
2023-04-12T20:54:26.505Z,1.30
2023-04-12T20:56:54.151Z,1.20
2023-04-12T20:59:23.920Z,3.33
2023-04-12T21:01:51.130Z,1.40
2023-04-12T21:04:17.611Z,2.47
2023-04-12T21:06:45.004Z,1.00
2023-04-12T21:09:11.410Z,3.53
2023-04-12T21:11:37.985Z,1.83
2023-04-12T21:14:04.986Z,2.03
2023-04-12T21:16:31.488Z,2.70
2023-04-12T21:18:59.275Z,1.67
2023-04-12T21:21:27.332Z,2.10
2023-04-12T21:23:53.743Z,3.13
2023-04-12T21:26:21.457Z,2.70
2023-04-12T21:28:48.641Z,4.50
2023-04-12T21:31:15.356Z,3.33
2023-04-12T21:33:41.854Z,3.67
2023-04-12T21:36:08.308Z,3.33
2023-04-12T21:38:34.652Z,3.17
2023-04-12T21:41:09.781Z,2.30
2023-04-12T21:43:36.087Z,1.87
2023-04-12T21:46:02.576Z,0.87
2023-04-12T21:48:29.376Z,1.07
2023-04-12T21:50:55.783Z,1.23
2023-04-12T21:53:22.143Z,1.87
2023-04-12T21:55:50.808Z,1.17
2023-04-12T21:58:17.299Z,2.60
2023-04-12T22:00:43.952Z,1.47
2023-04-12T22:03:11.868Z,0.93
2023-04-12T22:05:41.189Z,0.97
2023-04-12T22:08:08.443Z,0.93
2023-04-12T22:10:35.014Z,1.23
2023-04-12T22:13:02.640Z,0.80
2023-04-12T22:15:29.851Z,0.70
2023-04-12T22:17:56.895Z,0.80
2023-04-12T22:20:23.350Z,1.00
2023-04-12T22:22:49.751Z,1.70
2023-04-12T22:25:18.270Z,1.13
2023-04-12T22:27:47.740Z,1.90
2023-04-12T22:30:14.728Z,1.23
2023-04-12T22:32:41.358Z,0.97
2023-04-12T22:35:09.299Z,1.27
2023-04-12T22:37:38.781Z,3.17
2023-04-12T22:40:06.381Z,1.60
2023-04-12T22:42:32.677Z,1.60
2023-04-12T22:44:59.079Z,0.93
2023-04-12T22:47:26.540Z,0.70
2023-04-12T22:50:01.294Z,1.00
2023-04-12T22:52:30.563Z,0.70
2023-04-12T22:54:56.989Z,0.70
2023-04-12T22:57:23.675Z,0.77
2023-04-12T22:59:51.746Z,0.63
2023-04-12T23:02:18.227Z,0.60
2023-04-12T23:04:48.786Z,3.70
2023-04-12T23:07:15.417Z,1.17
2023-04-12T23:09:42.464Z,1.93
2023-04-12T23:12:08.902Z,1.53
2023-04-12T23:14:37.750Z,1.47
2023-04-12T23:17:04.206Z,1.57
2023-04-12T23:19:30.555Z,0.67
2023-04-12T23:21:57.236Z,0.87
2023-04-12T23:24:24.951Z,2.23
2023-04-12T23:26:51.329Z,0.80
2023-04-12T23:29:17.779Z,1.13
2023-04-12T23:31:45.324Z,1.27
2023-04-12T23:34:11.850Z,1.50
2023-04-12T23:36:38.263Z,0.80
2023-04-12T23:39:08.529Z,2.00
2023-04-12T23:41:34.874Z,1.63
2023-04-12T23:44:02.128Z,0.80
2023-04-12T23:46:28.671Z,1.07
2023-04-12T23:48:55.173Z,1.43
2023-04-12T23:51:22.581Z,0.60
2023-04-12T23:53:48.964Z,1.70
2023-04-12T23:56:15.697Z,0.70
2023-04-12T23:58:42.679Z,4.10
